sensor_id;sensor_type;location;lat;lon;timestamp;pressure;altitude;pressure_sealevel;temperature;humidity
39449;BME280;25151;45.566;9.382;2022-09-20T00:02:08;99731.75;;;27.13;51.33
39449;BME280;25151;45.566;9.382;2022-09-20T00:05:08;99733.03;;;27.12;51.29
39449;BME280;25151;45.566;9.382;2022-09-20T00:08:13;99729.41;;;27.12;51.40
39449;BME280;25151;45.566;9.382;2022-09-20T00:11:23;99734.47;;;27.08;51.75
39449;BME280;25151;45.566;9.382;2022-09-20T00:14:24;99733.22;;;27.09;51.70
39449;BME280;25151;45.566;9.382;2022-09-20T00:17:25;99730.41;;;27.09;51.63
39449;BME280;25151;45.566;9.382;2022-09-20T00:20:25;99726.28;;;27.10;51.70
39449;BME280;25151;45.566;9.382;2022-09-20T00:23:26;99730.41;;;27.09;51.95
39449;BME280;25151;45.566;9.382;2022-09-20T00:26:28;99727.56;;;27.09;51.59
39449;BME280;25151;45.566;9.382;2022-09-20T00:29:29;99718.50;;;27.05;51.34
39449;BME280;25151;45.566;9.382;2022-09-20T00:32:30;99714.66;;;27.08;51.66
39449;BME280;25151;45.566;9.382;2022-09-20T00:35:32;99721.63;;;27.07;51.48
39449;BME280;25151;45.566;9.382;2022-09-20T00:38:33;99718.78;;;27.07;51.54
39449;BME280;25151;45.566;9.382;2022-09-20T00:41:33;99720.06;;;27.06;51.49
39449;BME280;25151;45.566;9.382;2022-09-20T00:44:55;99723.16;;;27.08;51.83
39449;BME280;25151;45.566;9.382;2022-09-20T00:48:12;99722.91;;;27.06;51.81
39449;BME280;25151;45.566;9.382;2022-09-20T00:51:19;99731.38;;;27.06;51.72
39449;BME280;25151;45.566;9.382;2022-09-20T00:54:24;99724.19;;;27.05;51.66
39449;BME280;25151;45.566;9.382;2022-09-20T00:57:25;99721.34;;;27.05;51.47
39449;BME280;25151;45.566;9.382;2022-09-20T01:00:26;99724.19;;;27.05;51.60
39449;BME280;25151;45.566;9.382;2022-09-20T01:03:30;99718.50;;;27.05;51.44
39449;BME280;25151;45.566;9.382;2022-09-20T01:06:33;99719.28;;;27.05;51.50
39449;BME280;25151;45.566;9.382;2022-09-20T01:09:37;99717.44;;;27.02;51.49
39449;BME280;25151;45.566;9.382;2022-09-20T01:12:38;99715.38;;;27.03;51.53
39449;BME280;25151;45.566;9.382;2022-09-20T01:15:41;99713.06;;;27.01;51.64
39449;BME280;25151;45.566;9.382;2022-09-20T01:18:44;99713.56;;;27.00;51.72
39449;BME280;25151;45.566;9.382;2022-09-20T01:21:47;99717.44;;;27.02;51.55
39449;BME280;25151;45.566;9.382;2022-09-20T01:25:26;99712.28;;;27.01;51.66
39449;BME280;25151;45.566;9.382;2022-09-20T01:28:20;99712.28;;;27.01;51.75
39449;BME280;25151;45.566;9.382;2022-09-20T01:31:33;99706.34;;;26.98;51.53
39449;BME280;25151;45.566;9.382;2022-09-20T01:34:36;99706.34;;;26.98;51.59
39449;BME280;25151;45.566;9.382;2022-09-20T01:41:21;99714.84;;;26.98;51.77
39449;BME280;25151;45.566;9.382;2022-09-20T01:59:00;99720.50;;;26.98;51.59
39449;BME280;25151;45.566;9.382;2022-09-20T02:09:01;99726.66;;;26.97;51.44
39449;BME280;25151;45.566;9.382;2022-09-20T02:16:15;99715.03;;;26.95;51.46
39449;BME280;25151;45.566;9.382;2022-09-20T02:26:48;99698.28;;;26.91;51.38
39449;BME280;25151;45.566;9.382;2022-09-20T02:29:52;99706.56;;;26.95;51.62
39449;BME280;25151;45.566;9.382;2022-09-20T02:36:35;99699.81;;;26.92;51.53
39449;BME280;25151;45.566;9.382;2022-09-20T02:40:00;99697.50;;;26.91;51.59
39449;BME280;25151;45.566;9.382;2022-09-20T02:50:17;99686.97;;;26.91;51.28
39449;BME280;25151;45.566;9.382;2022-09-20T02:54:02;99693.91;;;26.90;51.42
39449;BME280;25151;45.566;9.382;2022-09-20T03:03:45;99709.34;;;26.89;51.52
39449;BME280;25151;45.566;9.382;2022-09-20T03:14:20;99698.69;;;26.84;51.67
39449;BME280;25151;45.566;9.382;2022-09-20T03:21:51;99710.59;;;26.88;51.50
39449;BME280;25151;45.566;9.382;2022-09-20T03:25:33;99721.13;;;26.88;51.44
39449;BME280;25151;45.566;9.382;2022-09-20T03:39:06;99731.66;;;26.87;51.41
39449;BME280;25151;45.566;9.382;2022-09-20T04:02:35;99763.78;;;26.84;51.43
39449;BME280;25151;45.566;9.382;2022-09-20T04:08:59;99765.06;;;26.83;51.66
39449;BME280;25151;45.566;9.382;2022-09-20T04:12:19;99768.66;;;26.84;51.19
39449;BME280;25151;45.566;9.382;2022-09-20T04:22:28;99768.38;;;26.82;51.55
39449;BME280;25151;45.566;9.382;2022-09-20T04:25:35;99769.16;;;26.82;51.40
39449;BME280;25151;45.566;9.382;2022-09-20T04:28:45;99769.16;;;26.82;51.38
39449;BME280;25151;45.566;9.382;2022-09-20T04:31:56;99769.16;;;26.82;51.31
39449;BME280;25151;45.566;9.382;2022-09-20T04:38:37;99771.69;;;26.80;51.30
39449;BME280;25151;45.566;9.382;2022-09-20T04:45:09;99815.69;;;26.81;51.41
39449;BME280;25151;45.566;9.382;2022-09-20T04:56:09;99828.25;;;26.80;51.30
39449;BME280;25151;45.566;9.382;2022-09-20T05:06:37;99847.50;;;26.76;51.15
39449;BME280;25151;45.566;9.382;2022-09-20T05:17:33;99864.00;;;26.78;51.11
39449;BME280;25151;45.566;9.382;2022-09-20T05:30:38;99874.22;;;26.75;51.17
39449;BME280;25151;45.566;9.382;2022-09-20T05:41:09;99876.50;;;26.56;48.24
39449;BME280;25151;45.566;9.382;2022-09-20T05:47:38;99891.53;;;26.47;44.89
39449;BME280;25151;45.566;9.382;2022-09-20T05:54:40;99887.81;;;26.56;44.74
39449;BME280;25151;45.566;9.382;2022-09-20T06:01:54;99888.19;;;26.64;45.46
39449;BME280;25151;45.566;9.382;2022-09-20T06:05:11;99890.56;;;26.65;45.61
39449;BME280;25151;45.566;9.382;2022-09-20T06:24:32;99899.88;;;26.71;46.18
39449;BME280;25151;45.566;9.382;2022-09-20T06:27:45;99910.72;;;26.73;46.64
39449;BME280;25151;45.566;9.382;2022-09-20T06:30:50;99906.63;;;26.74;46.59
39449;BME280;25151;45.566;9.382;2022-09-20T06:33:57;99917.94;;;26.74;46.66
39449;BME280;25151;45.566;9.382;2022-09-20T06:37:10;99918.72;;;26.75;46.51
39449;BME280;25151;45.566;9.382;2022-09-20T06:40:41;99911.50;;;26.73;46.74
39449;BME280;25151;45.566;9.382;2022-09-20T06:44:03;99920.78;;;26.74;46.95
39449;BME280;25151;45.566;9.382;2022-09-20T06:47:04;99920.78;;;26.74;47.29
39449;BME280;25151;45.566;9.382;2022-09-20T06:50:06;99926.44;;;26.74;46.95
39449;BME280;25151;45.566;9.382;2022-09-20T06:53:07;99920.28;;;26.76;46.86
39449;BME280;25151;45.566;9.382;2022-09-20T06:56:15;99933.63;;;26.75;47.26
39449;BME280;25151;45.566;9.382;2022-09-20T06:59:16;99930.03;;;26.75;47.20
39449;BME280;25151;45.566;9.382;2022-09-20T07:02:17;99935.19;;;26.76;47.10
39449;BME280;25151;45.566;9.382;2022-09-20T07:05:18;99944.94;;;26.75;47.45
39449;BME280;25151;45.566;9.382;2022-09-20T07:08:22;99940.84;;;26.76;47.24
39449;BME280;25151;45.566;9.382;2022-09-20T07:11:23;99942.44;;;26.77;47.59
39449;BME280;25151;45.566;9.382;2022-09-20T07:14:25;99946.31;;;26.80;47.59
39449;BME280;25151;45.566;9.382;2022-09-20T07:17:29;99950.72;;;26.81;47.54
39449;BME280;25151;45.566;9.382;2022-09-20T07:20:30;99953.53;;;26.81;47.65
39449;BME280;25151;45.566;9.382;2022-09-20T07:23:31;99960.44;;;26.80;47.42
39449;BME280;25151;45.566;9.382;2022-09-20T07:26:31;99959.19;;;26.81;47.33
39449;BME280;25151;45.566;9.382;2022-09-20T07:29:33;99959.97;;;26.81;47.54
39449;BME280;25151;45.566;9.382;2022-09-20T07:32:34;99959.69;;;26.79;47.44
39449;BME280;25151;45.566;9.382;2022-09-20T07:35:36;99968.47;;;26.81;47.76
39449;BME280;25151;45.566;9.382;2022-09-20T07:38:38;99962.81;;;26.81;47.69
39449;BME280;25151;45.566;9.382;2022-09-20T07:41:40;99976.19;;;26.81;47.83
39449;BME280;25151;45.566;9.382;2022-09-20T07:44:41;99968.75;;;26.83;47.75
39449;BME280;25151;45.566;9.382;2022-09-20T07:47:42;99967.97;;;26.83;47.61
39449;BME280;25151;45.566;9.382;2022-09-20T07:50:50;99968.47;;;26.81;47.63
39449;BME280;25151;45.566;9.382;2022-09-20T07:53:53;99970.03;;;26.82;47.78
39449;BME280;25151;45.566;9.382;2022-09-20T07:56:54;99978.00;;;26.84;47.69
39449;BME280;25151;45.566;9.382;2022-09-20T07:59:55;99978.00;;;26.84;48.02
39449;BME280;25151;45.566;9.382;2022-09-20T08:02:59;99978.78;;;26.84;47.97
39449;BME280;25151;45.566;9.382;2022-09-20T08:06:05;99979.28;;;26.83;47.71
39449;BME280;25151;45.566;9.382;2022-09-20T08:09:07;99975.38;;;26.80;47.73
39449;BME280;25151;45.566;9.382;2022-09-20T08:12:08;99980.38;;;26.85;48.15
39449;BME280;25151;45.566;9.382;2022-09-20T08:15:09;99989.91;;;26.88;47.72
39449;BME280;25151;45.566;9.382;2022-09-20T08:18:10;99994.78;;;26.87;47.94
39449;BME280;25151;45.566;9.382;2022-09-20T08:21:12;99993.50;;;26.88;47.90
39449;BME280;25151;45.566;9.382;2022-09-20T08:24:13;99987.56;;;26.86;47.93
39449;BME280;25151;45.566;9.382;2022-09-20T08:27:16;99980.84;;;26.84;48.09
39449;BME280;25151;45.566;9.382;2022-09-20T08:30:17;99991.47;;;26.89;47.85
39449;BME280;25151;45.566;9.382;2022-09-20T08:33:18;99984.75;;;26.86;47.98
39449;BME280;25151;45.566;9.382;2022-09-20T08:36:21;99984.56;;;26.90;47.69
39449;BME280;25151;45.566;9.382;2022-09-20T08:39:23;99992.53;;;26.91;47.82
39449;BME280;25151;45.566;9.382;2022-09-20T08:42:29;99988.94;;;26.91;47.84
39449;BME280;25151;45.566;9.382;2022-09-20T08:45:31;99983.00;;;26.89;48.03
39449;BME280;25151;45.566;9.382;2022-09-20T08:48:33;99978.69;;;26.93;47.66
39449;BME280;25151;45.566;9.382;2022-09-20T08:51:37;99988.44;;;26.92;48.04
39449;BME280;25151;45.566;9.382;2022-09-20T08:54:38;99988.44;;;26.92;48.20
39449;BME280;25151;45.566;9.382;2022-09-20T08:57:43;99981.53;;;26.93;47.87
39449;BME280;25151;45.566;9.382;2022-09-20T09:00:48;99989.50;;;26.95;48.05
39449;BME280;25151;45.566;9.382;2022-09-20T09:03:58;99986.22;;;26.96;47.66
39449;BME280;25151;45.566;9.382;2022-09-20T09:07:02;99977.72;;;26.96;47.98
39449;BME280;25151;45.566;9.382;2022-09-20T09:10:03;99973.03;;;26.93;47.98
39449;BME280;25151;45.566;9.382;2022-09-20T09:13:05;99972.06;;;26.96;47.77
39449;BME280;25151;45.566;9.382;2022-09-20T09:16:11;99964.03;;;26.95;48.23
39449;BME280;25151;45.566;9.382;2022-09-20T09:19:45;99965.13;;;26.97;48.19
39449;BME280;25151;45.566;9.382;2022-09-20T09:22:48;99962.28;;;26.97;48.10
39449;BME280;25151;45.566;9.382;2022-09-20T09:26:02;99955.09;;;26.96;48.03
39449;BME280;25151;45.566;9.382;2022-09-20T09:29:21;99955.66;;;27.01;47.97
39449;BME280;25151;45.566;9.382;2022-09-20T09:32:30;99953.09;;;27.03;48.07
39449;BME280;25151;45.566;9.382;2022-09-20T09:35:34;99958.75;;;27.03;47.93
39449;BME280;25151;45.566;9.382;2022-09-20T09:38:38;99956.22;;;27.05;48.14
39449;BME280;25151;45.566;9.382;2022-09-20T09:41:41;99950.28;;;27.03;47.99
39449;BME280;25151;45.566;9.382;2022-09-20T09:44:42;99936.13;;;27.03;48.09
39449;BME280;25151;45.566;9.382;2022-09-20T09:47:43;99939.72;;;27.03;48.28
39449;BME280;25151;45.566;9.382;2022-09-20T09:50:45;99936.13;;;27.03;48.05
39449;BME280;25151;45.566;9.382;2022-09-20T09:53:47;99939.53;;;27.07;48.08
39449;BME280;25151;45.566;9.382;2022-09-20T10:06:50;99917.38;;;27.05;48.38
39449;BME280;25151;45.566;9.382;2022-09-20T10:13:16;99916.88;;;27.07;48.12
39449;BME280;25151;45.566;9.382;2022-09-20T10:23:39;99902.34;;;27.14;48.30
39449;BME280;25151;45.566;9.382;2022-09-20T10:33:26;99894.13;;;27.16;47.94
39449;BME280;25151;45.566;9.382;2022-09-20T10:36:53;99896.50;;;27.17;48.04
39449;BME280;25151;45.566;9.382;2022-09-20T10:43:16;99889.28;;;27.16;48.08
39449;BME280;25151;45.566;9.382;2022-09-20T11:07:01;99885.53;;;27.25;48.21
39449;BME280;25151;45.566;9.382;2022-09-20T11:10:19;99878.28;;;27.24;48.44
39449;BME280;25151;45.566;9.382;2022-09-20T11:13:37;99879.88;;;27.25;48.37
39449;BME280;25151;45.566;9.382;2022-09-20T11:16:56;99879.88;;;27.25;48.49
39449;BME280;25151;45.566;9.382;2022-09-20T11:23:17;99880.13;;;27.27;48.38
39449;BME280;25151;45.566;9.382;2022-09-20T11:26:48;99877.31;;;27.27;48.45
39449;BME280;25151;45.566;9.382;2022-09-20T11:36:43;99866.53;;;27.31;48.86
39449;BME280;25151;45.566;9.382;2022-09-20T11:39:49;99866.84;;;27.33;48.98
39449;BME280;25151;45.566;9.382;2022-09-20T11:42:51;99869.94;;;27.35;49.08
39449;BME280;25151;45.566;9.382;2022-09-20T11:45:54;99857.38;;;27.36;49.04
39449;BME280;25151;45.566;9.382;2022-09-20T11:49:08;99853.25;;;27.37;49.11
39449;BME280;25151;45.566;9.382;2022-09-20T11:52:27;99856.34;;;27.39;48.68
39449;BME280;25151;45.566;9.382;2022-09-20T11:56:09;99850.69;;;27.39;48.81
39449;BME280;25151;45.566;9.382;2022-09-20T11:59:28;99840.38;;;27.36;48.96
39449;BME280;25151;45.566;9.382;2022-09-20T12:02:48;99831.88;;;27.36;49.40
39449;BME280;25151;45.566;9.382;2022-09-20T12:06:02;99830.59;;;27.37;49.18
39449;BME280;25151;45.566;9.382;2022-09-20T12:09:17;99822.09;;;27.37;49.29
39449;BME280;25151;45.566;9.382;2022-09-20T12:12:42;99819.84;;;27.41;49.15
39449;BME280;25151;45.566;9.382;2022-09-20T12:15:44;99814.44;;;27.43;49.39
39449;BME280;25151;45.566;9.382;2022-09-20T12:18:47;99787.19;;;27.46;49.08
39449;BME280;25151;45.566;9.382;2022-09-20T12:25:35;99799.06;;;27.50;49.02
39449;BME280;25151;45.566;9.382;2022-09-20T12:28:50;99795.47;;;27.50;49.30
39449;BME280;25151;45.566;9.382;2022-09-20T12:32:02;99785.41;;;27.49;49.40
39449;BME280;25151;45.566;9.382;2022-09-20T12:38:46;99781.00;;;27.48;49.26
39449;BME280;25151;45.566;9.382;2022-09-20T12:41:58;99777.19;;;27.51;49.28
39449;BME280;25151;45.566;9.382;2022-09-20T12:45:05;99779.75;;;27.49;49.82
39449;BME280;25151;45.566;9.382;2022-09-20T12:48:18;99764.03;;;27.48;49.38
39449;BME280;25151;45.566;9.382;2022-09-20T12:51:26;99770.50;;;27.48;49.45
39449;BME280;25151;45.566;9.382;2022-09-20T12:54:53;99766.09;;;27.47;49.30
39449;BME280;25151;45.566;9.382;2022-09-20T13:04:39;99753.75;;;27.50;49.68
39449;BME280;25151;45.566;9.382;2022-09-20T13:07:52;99743.22;;;27.51;49.75
39449;BME280;25151;45.566;9.382;2022-09-20T13:14:36;99742.94;;;27.49;49.70
39449;BME280;25151;45.566;9.382;2022-09-20T13:17:47;99742.66;;;27.46;49.59
39449;BME280;25151;45.566;9.382;2022-09-20T13:20:51;99733.91;;;27.44;49.23
39449;BME280;25151;45.566;9.382;2022-09-20T13:24:02;99730.28;;;27.44;49.82
39449;BME280;25151;45.566;9.382;2022-09-20T13:27:08;99726.66;;;27.43;49.48
39449;BME280;25151;45.566;9.382;2022-09-20T13:30:23;99729.47;;;27.43;49.74
39449;BME280;25151;45.566;9.382;2022-09-20T13:33:37;99725.09;;;27.42;49.58
39449;BME280;25151;45.566;9.382;2022-09-20T13:36:38;99707.06;;;27.40;49.36
39449;BME280;25151;45.566;9.382;2022-09-20T13:39:40;99714.28;;;27.41;49.16
39449;BME280;25151;45.566;9.382;2022-09-20T13:42:41;99717.91;;;27.41;49.67
39449;BME280;25151;45.566;9.382;2022-09-20T13:45:51;99699.38;;;27.40;49.37
39449;BME280;25151;45.566;9.382;2022-09-20T13:49:08;99700.13;;;27.41;49.27
39449;BME280;25151;45.566;9.382;2022-09-20T13:52:32;99689.81;;;27.38;49.48
39449;BME280;25151;45.566;9.382;2022-09-20T13:55:35;99686.47;;;27.39;49.29
39449;BME280;25151;45.566;9.382;2022-09-20T13:58:37;99681.03;;;27.36;49.22
39449;BME280;25151;45.566;9.382;2022-09-20T14:01:40;99684.91;;;27.38;49.53
39449;BME280;25151;45.566;9.382;2022-09-20T14:04:44;99683.38;;;27.37;49.21
39449;BME280;25151;45.566;9.382;2022-09-20T14:07:46;99676.16;;;27.36;49.40
39449;BME280;25151;45.566;9.382;2022-09-20T14:11:06;99677.41;;;27.35;49.60
39449;BME280;25151;45.566;9.382;2022-09-20T14:14:08;99669.94;;;27.32;49.61
39449;BME280;25151;45.566;9.382;2022-09-20T14:17:12;99670.72;;;27.33;49.08
39449;BME280;25151;45.566;9.382;2022-09-20T14:20:16;99668.66;;;27.33;49.29
39449;BME280;25151;45.566;9.382;2022-09-20T14:23:25;99670.22;;;27.34;49.55
39449;BME280;25151;45.566;9.382;2022-09-20T14:26:30;99663.78;;;27.34;49.12
39449;BME280;25151;45.566;9.382;2022-09-20T14:32:38;99652.16;;;27.32;49.41
39449;BME280;25151;45.566;9.382;2022-09-20T14:35:48;99652.97;;;27.32;49.52
39449;BME280;25151;45.566;9.382;2022-09-20T14:38:56;99657.81;;;27.32;49.54
39449;BME280;25151;45.566;9.382;2022-09-20T14:41:58;99647.50;;;27.29;49.55
39449;BME280;25151;45.566;9.382;2022-09-20T14:45:00;99648.56;;;27.31;49.52
39449;BME280;25151;45.566;9.382;2022-09-20T14:48:38;99655.50;;;27.30;49.39
39449;BME280;25151;45.566;9.382;2022-09-20T14:51:42;99653.94;;;27.29;49.48
39449;BME280;25151;45.566;9.382;2022-09-20T14:55:18;99648.28;;;27.29;49.29
39449;BME280;25151;45.566;9.382;2022-09-20T14:58:19;99638.94;;;27.23;49.44
39449;BME280;25151;45.566;9.382;2022-09-20T15:01:22;99652.41;;;27.28;49.22
39449;BME280;25151;45.566;9.382;2022-09-20T15:04:25;99645.69;;;27.26;49.40
39449;BME280;25151;45.566;9.382;2022-09-20T15:07:27;99644.91;;;27.25;49.34
39449;BME280;25151;45.566;9.382;2022-09-20T15:10:28;99637.97;;;27.26;49.55
39449;BME280;25151;45.566;9.382;2022-09-20T15:13:29;99630.47;;;27.23;49.47
39449;BME280;25151;45.566;9.382;2022-09-20T15:16:31;99639.25;;;27.25;49.38
39449;BME280;25151;45.566;9.382;2022-09-20T15:19:32;99634.84;;;27.24;49.22
39449;BME280;25151;45.566;9.382;2022-09-20T15:22:33;99624.53;;;27.21;49.70
39449;BME280;25151;45.566;9.382;2022-09-20T15:25:34;99623.25;;;27.22;49.56
39449;BME280;25151;45.566;9.382;2022-09-20T15:28:35;99626.09;;;27.22;49.51
39449;BME280;25151;45.566;9.382;2022-09-20T15:31:35;99627.38;;;27.21;49.25
39449;BME280;25151;45.566;9.382;2022-09-20T15:34:37;99622.19;;;27.19;49.42
39449;BME280;25151;45.566;9.382;2022-09-20T15:37:37;99626.59;;;27.20;49.74
39449;BME280;25151;45.566;9.382;2022-09-20T15:40:40;99625.78;;;27.20;49.38
39449;BME280;25151;45.566;9.382;2022-09-20T15:43:40;99621.41;;;27.19;49.31
39449;BME280;25151;45.566;9.382;2022-09-20T15:46:42;99622.72;;;27.18;49.56
39449;BME280;25151;45.566;9.382;2022-09-20T15:49:43;99618.31;;;27.17;49.23
39449;BME280;25151;45.566;9.382;2022-09-20T15:52:46;99620.38;;;27.16;49.45
39449;BME280;25151;45.566;9.382;2022-09-20T15:55:48;99621.94;;;27.17;49.50
39449;BME280;25151;45.566;9.382;2022-09-20T15:58:51;99624.00;;;27.17;49.40
39449;BME280;25151;45.566;9.382;2022-09-20T16:01:59;99618.31;;;27.17;49.45
39449;BME280;25151;45.566;9.382;2022-09-20T16:05:00;99620.88;;;27.15;49.68
39449;BME280;25151;45.566;9.382;2022-09-20T16:08:01;99616.75;;;27.16;49.53
39449;BME280;25151;45.566;9.382;2022-09-20T16:11:03;99619.31;;;27.14;49.59
39449;BME280;25151;45.566;9.382;2022-09-20T16:14:05;99618.03;;;27.15;49.65
39449;BME280;25151;45.566;9.382;2022-09-20T16:17:06;99622.41;;;27.16;49.66
39449;BME280;25151;45.566;9.382;2022-09-20T16:20:11;99625.25;;;27.16;49.80
39449;BME280;25151;45.566;9.382;2022-09-20T16:23:12;99621.41;;;27.19;49.77
39449;BME280;25151;45.566;9.382;2022-09-20T16:26:13;99625.53;;;27.18;50.00
39449;BME280;25151;45.566;9.382;2022-09-20T16:29:14;99621.41;;;27.19;50.30
39449;BME280;25151;45.566;9.382;2022-09-20T16:32:16;99619.88;;;27.18;50.03
39449;BME280;25151;45.566;9.382;2022-09-20T16:35:16;99634.03;;;27.18;50.23
39449;BME280;25151;45.566;9.382;2022-09-20T16:38:17;99631.97;;;27.18;50.18
39449;BME280;25151;45.566;9.382;2022-09-20T16:41:18;99630.41;;;27.17;50.08
39449;BME280;25151;45.566;9.382;2022-09-20T16:44:18;99637.63;;;27.18;50.55
39449;BME280;25151;45.566;9.382;2022-09-20T16:47:19;99638.41;;;27.19;50.33
39449;BME280;25151;45.566;9.382;2022-09-20T16:50:21;99645.59;;;27.20;50.37
39449;BME280;25151;45.566;9.382;2022-09-20T16:53:22;99644.84;;;27.19;50.68
39449;BME280;25151;45.566;9.382;2022-09-20T16:56:30;99642.50;;;27.18;50.32
39449;BME280;25151;45.566;9.382;2022-09-20T16:59:33;99644.06;;;27.19;50.46
39449;BME280;25151;45.566;9.382;2022-09-20T17:02:34;99644.84;;;27.19;50.41
39449;BME280;25151;45.566;9.382;2022-09-20T17:05:35;99650.50;;;27.19;50.43
39449;BME280;25151;45.566;9.382;2022-09-20T17:08:37;99646.13;;;27.18;50.66
39449;BME280;25151;45.566;9.382;2022-09-20T17:11:42;99653.84;;;27.18;50.56
39449;BME280;25151;45.566;9.382;2022-09-20T17:14:45;99650.25;;;27.17;50.64
39449;BME280;25151;45.566;9.382;2022-09-20T17:17:45;99655.13;;;27.17;50.75
39449;BME280;25151;45.566;9.382;2022-09-20T17:20:48;99662.03;;;27.16;50.59
39449;BME280;25151;45.566;9.382;2022-09-20T17:23:51;99658.94;;;27.14;50.70
39449;BME280;25151;45.566;9.382;2022-09-20T17:26:56;99660.50;;;27.15;50.68
39449;BME280;25151;45.566;9.382;2022-09-20T17:29:56;99657.94;;;27.17;50.83
39449;BME280;25151;45.566;9.382;2022-09-20T17:32:57;99658.16;;;27.13;50.48
39449;BME280;25151;45.566;9.382;2022-09-20T17:35:58;99658.16;;;27.13;50.66
39449;BME280;25151;45.566;9.382;2022-09-20T17:39:01;99661.78;;;27.14;50.79
39449;BME280;25151;45.566;9.382;2022-09-20T17:42:03;99663.06;;;27.13;50.80
39449;BME280;25151;45.566;9.382;2022-09-20T17:45:04;99668.72;;;27.13;50.99
39449;BME280;25151;45.566;9.382;2022-09-20T17:48:05;99673.09;;;27.14;50.70
39449;BME280;25151;45.566;9.382;2022-09-20T17:51:09;99679.03;;;27.16;50.85
39449;BME280;25151;45.566;9.382;2022-09-20T17:54:12;99666.16;;;27.15;50.90
39449;BME280;25151;45.566;9.382;2022-09-20T17:57:13;99675.16;;;27.13;50.78
39449;BME280;25151;45.566;9.382;2022-09-20T18:00:14;99675.94;;;27.14;51.05
39449;BME280;25151;45.566;9.382;2022-09-20T18:03:16;99685.19;;;27.14;51.02
39449;BME280;25151;45.566;9.382;2022-09-20T18:06:31;99679.03;;;27.16;50.78
39449;BME280;25151;45.566;9.382;2022-09-20T18:09:32;99681.38;;;27.17;51.14
39449;BME280;25151;45.566;9.382;2022-09-20T18:12:33;99681.38;;;27.17;51.30
39449;BME280;25151;45.566;9.382;2022-09-20T18:15:34;99687.81;;;27.18;51.59
39449;BME280;25151;45.566;9.382;2022-09-20T18:18:35;99689.34;;;27.19;51.07
39449;BME280;25151;45.566;9.382;2022-09-20T18:21:37;99693.72;;;27.20;51.32
39449;BME280;25151;45.566;9.382;2022-09-20T18:24:38;99690.91;;;27.20;51.68
39449;BME280;25151;45.566;9.382;2022-09-20T18:27:39;99700.66;;;27.19;51.49
39449;BME280;25151;45.566;9.382;2022-09-20T18:30:40;99705.84;;;27.20;51.47
39449;BME280;25151;45.566;9.382;2022-09-20T18:33:41;99707.88;;;27.20;51.73
39449;BME280;25151;45.566;9.382;2022-09-20T18:36:43;99709.94;;;27.19;51.79
39449;BME280;25151;45.566;9.382;2022-09-20T18:39:44;99712.00;;;27.19;51.37
39449;BME280;25151;45.566;9.382;2022-09-20T18:42:45;99718.44;;;27.19;51.88
39449;BME280;25151;45.566;9.382;2022-09-20T18:45:50;99722.31;;;27.22;51.32
39449;BME280;25151;45.566;9.382;2022-09-20T18:48:55;99725.38;;;27.18;51.52
39449;BME280;25151;45.566;9.382;2022-09-20T18:51:56;99725.88;;;27.17;51.33
39449;BME280;25151;45.566;9.382;2022-09-20T18:54:57;99731.25;;;27.15;51.31
39449;BME280;25151;45.566;9.382;2022-09-20T18:57:59;99734.09;;;27.15;51.11
39449;BME280;25151;45.566;9.382;2022-09-20T19:01:14;99733.81;;;27.13;51.33
39449;BME280;25151;45.566;9.382;2022-09-20T19:07:54;99740.25;;;27.13;51.16
39449;BME280;25151;45.566;9.382;2022-09-20T19:11:01;99742.78;;;27.11;50.90
39449;BME280;25151;45.566;9.382;2022-09-20T19:14:18;99749.72;;;27.10;51.46
39449;BME280;25151;45.566;9.382;2022-09-20T19:17:31;99746.91;;;27.10;51.02
39449;BME280;25151;45.566;9.382;2022-09-20T19:24:09;99754.59;;;27.10;50.79
39449;BME280;25151;45.566;9.382;2022-09-20T19:27:14;99763.06;;;27.10;50.64
39449;BME280;25151;45.566;9.382;2022-09-20T19:30:15;99755.38;;;27.10;50.88
39449;BME280;25151;45.566;9.382;2022-09-20T19:33:17;99759.28;;;27.13;50.98
39449;BME280;25151;45.566;9.382;2022-09-20T19:36:22;99770.59;;;27.13;51.02
39449;BME280;25151;45.566;9.382;2022-09-20T19:46:10;99776.06;;;27.16;51.13
39449;BME280;25151;45.566;9.382;2022-09-20T19:49:22;99790.69;;;27.15;51.50
39449;BME280;25151;45.566;9.382;2022-09-20T19:52:24;99786.56;;;27.16;51.44
39449;BME280;25151;45.566;9.382;2022-09-20T19:55:25;99793.03;;;27.16;51.35
39449;BME280;25151;45.566;9.382;2022-09-20T19:58:26;99797.91;;;27.16;51.45
39449;BME280;25151;45.566;9.382;2022-09-20T20:01:27;99796.34;;;27.15;51.52
39449;BME280;25151;45.566;9.382;2022-09-20T20:04:28;99797.13;;;27.15;51.23
39449;BME280;25151;45.566;9.382;2022-09-20T20:07:37;99802.00;;;27.15;51.36
39449;BME280;25151;45.566;9.382;2022-09-20T20:11:10;99804.56;;;27.13;51.55
39449;BME280;25151;45.566;9.382;2022-09-20T20:14:20;99808.66;;;27.12;51.06
39449;BME280;25151;45.566;9.382;2022-09-20T20:17:47;99813.84;;;27.13;51.24
39449;BME280;25151;45.566;9.382;2022-09-20T20:20:51;99819.97;;;27.12;51.48
39449;BME280;25151;45.566;9.382;2022-09-20T20:23:57;99818.44;;;27.11;51.30
39449;BME280;25151;45.566;9.382;2022-09-20T20:27:04;99825.63;;;27.12;51.13
39449;BME280;25151;45.566;9.382;2022-09-20T20:30:05;99832.38;;;27.14;51.33
39449;BME280;25151;45.566;9.382;2022-09-20T20:33:06;99823.88;;;27.14;51.44
39449;BME280;25151;45.566;9.382;2022-09-20T20:36:07;99832.88;;;27.13;51.21
39449;BME280;25151;45.566;9.382;2022-09-20T20:39:09;99832.88;;;27.13;51.46
39449;BME280;25151;45.566;9.382;2022-09-20T20:42:10;99836.97;;;27.12;51.36
39449;BME280;25151;45.566;9.382;2022-09-20T20:45:12;99842.63;;;27.12;51.55
39449;BME280;25151;45.566;9.382;2022-09-20T20:48:13;99841.84;;;27.11;51.18
39449;BME280;25151;45.566;9.382;2022-09-20T20:51:18;99845.44;;;27.12;51.17
39449;BME280;25151;45.566;9.382;2022-09-20T20:54:19;99847.22;;;27.09;51.17
39449;BME280;25151;45.566;9.382;2022-09-20T20:57:20;99847.97;;;27.10;51.32
39449;BME280;25151;45.566;9.382;2022-09-20T21:00:21;99853.94;;;27.12;51.36
39449;BME280;25151;45.566;9.382;2022-09-20T21:03:21;99855.22;;;27.11;51.47